sensor_id;sensor_type;location;lat;lon;timestamp;pressure;altitude;pressure_sealevel;temperature;humidity
26489;BME280;14169;43.684;10.484;2022-07-06T00:01:20;101538.78;;;24.66;100.00
26489;BME280;14169;43.684;10.484;2022-07-06T00:03:46;101532.59;;;24.66;100.00
26489;BME280;14169;43.684;10.484;2022-07-06T00:06:11;101537.94;;;24.66;100.00
26489;BME280;14169;43.684;10.484;2022-07-06T00:08:37;101551.50;;;24.63;100.00
26489;BME280;14169;43.684;10.484;2022-07-06T00:11:03;101557.31;;;24.57;100.00
26489;BME280;14169;43.684;10.484;2022-07-06T00:13:28;101560.31;;;24.52;100.00
26489;BME280;14169;43.684;10.484;2022-07-06T00:15:54;101563.72;;;24.43;100.00
26489;BME280;14169;43.684;10.484;2022-07-06T00:18:20;101562.59;;;24.34;100.00
26489;BME280;14169;43.684;10.484;2022-07-06T00:20:45;101567.81;;;24.23;100.00
26489;BME280;14169;43.684;10.484;2022-07-06T00:23:11;101560.94;;;24.21;100.00
26489;BME280;14169;43.684;10.484;2022-07-06T00:25:36;101557.53;;;24.19;100.00
26489;BME280;14169;43.684;10.484;2022-07-06T00:28:02;101556.09;;;24.15;100.00
26489;BME280;14169;43.684;10.484;2022-07-06T00:30:28;101547.09;;;24.16;100.00
26489;BME280;14169;43.684;10.484;2022-07-06T00:32:53;101549.31;;;24.22;100.00
26489;BME280;14169;43.684;10.484;2022-07-06T00:35:19;101543.75;;;24.25;100.00
26489;BME280;14169;43.684;10.484;2022-07-06T00:37:44;101533.84;;;24.27;100.00
26489;BME280;14169;43.684;10.484;2022-07-06T00:40:10;101527.53;;;24.28;100.00
26489;BME280;14169;43.684;10.484;2022-07-06T00:42:47;101514.28;;;24.15;100.00
26489;BME280;14169;43.684;10.484;2022-07-06T00:45:14;101518.41;;;24.08;100.00
26489;BME280;14169;43.684;10.484;2022-07-06T00:47:41;101505.56;;;24.02;100.00
26489;BME280;14169;43.684;10.484;2022-07-06T00:50:08;101513.78;;;23.99;100.00
26489;BME280;14169;43.684;10.484;2022-07-06T00:52:42;101512.31;;;23.95;100.00
26489;BME280;14169;43.684;10.484;2022-07-06T00:55:09;101507.94;;;23.94;100.00
26489;BME280;14169;43.684;10.484;2022-07-06T00:57:35;101507.22;;;23.92;100.00
26489;BME280;14169;43.684;10.484;2022-07-06T01:00:03;101509.53;;;23.97;100.00
26489;BME280;14169;43.684;10.484;2022-07-06T01:02:32;101506.50;;;24.01;100.00
26489;BME280;14169;43.684;10.484;2022-07-06T01:04:58;101497.09;;;24.08;100.00
26489;BME280;14169;43.684;10.484;2022-07-06T01:07:24;101486.94;;;24.13;100.00
26489;BME280;14169;43.684;10.484;2022-07-06T01:09:50;101484.06;;;24.16;100.00
26489;BME280;14169;43.684;10.484;2022-07-06T01:12:15;101482.00;;;24.20;100.00
26489;BME280;14169;43.684;10.484;2022-07-06T01:14:42;101489.84;;;24.21;100.00
26489;BME280;14169;43.684;10.484;2022-07-06T01:17:08;101479.34;;;24.20;100.00
26489;BME280;14169;43.684;10.484;2022-07-06T01:19:33;101484.06;;;24.16;100.00
26489;BME280;14169;43.684;10.484;2022-07-06T01:21:59;101491.19;;;24.16;100.00
26489;BME280;14169;43.684;10.484;2022-07-06T01:24:25;101490.72;;;24.11;100.00
26489;BME280;14169;43.684;10.484;2022-07-06T01:26:50;101491.78;;;24.08;100.00
26489;BME280;14169;43.684;10.484;2022-07-06T01:29:16;101484.13;;;24.04;100.00
26489;BME280;14169;43.684;10.484;2022-07-06T01:31:48;101477.47;;;23.98;100.00
26489;BME280;14169;43.684;10.484;2022-07-06T01:34:16;101477.81;;;23.94;100.00
26489;BME280;14169;43.684;10.484;2022-07-06T01:36:42;101475.63;;;23.88;100.00
26489;BME280;14169;43.684;10.484;2022-07-06T01:39:08;101479.13;;;23.88;100.00
26489;BME280;14169;43.684;10.484;2022-07-06T01:41:34;101483.50;;;23.89;100.00
26489;BME280;14169;43.684;10.484;2022-07-06T01:43:59;101492.78;;;23.84;100.00
26489;BME280;14169;43.684;10.484;2022-07-06T01:46:25;101485.78;;;23.83;100.00
26489;BME280;14169;43.684;10.484;2022-07-06T01:48:50;101477.53;;;23.86;100.00
26489;BME280;14169;43.684;10.484;2022-07-06T01:51:16;101469.56;;;23.86;100.00
26489;BME280;14169;43.684;10.484;2022-07-06T01:53:41;101471.38;;;23.85;100.00
26489;BME280;14169;43.684;10.484;2022-07-06T01:56:07;101477.91;;;23.81;100.00
26489;BME280;14169;43.684;10.484;2022-07-06T01:58:33;101471.13;;;23.77;100.00
26489;BME280;14169;43.684;10.484;2022-07-06T02:00:59;101462.63;;;23.72;100.00
26489;BME280;14169;43.684;10.484;2022-07-06T02:03:24;101465.84;;;23.65;100.00
26489;BME280;14169;43.684;10.484;2022-07-06T02:05:50;101458.19;;;23.60;100.00
26489;BME280;14169;43.684;10.484;2022-07-06T02:08:15;101453.19;;;23.55;100.00
26489;BME280;14169;43.684;10.484;2022-07-06T02:10:40;101465.47;;;23.45;100.00
26489;BME280;14169;43.684;10.484;2022-07-06T02:13:06;101462.66;;;23.36;100.00
26489;BME280;14169;43.684;10.484;2022-07-06T02:15:31;101465.88;;;23.28;100.00
26489;BME280;14169;43.684;10.484;2022-07-06T02:17:57;101462.59;;;23.25;100.00
26489;BME280;14169;43.684;10.484;2022-07-06T02:20:22;101460.16;;;23.22;100.00
26489;BME280;14169;43.684;10.484;2022-07-06T02:22:48;101459.41;;;23.20;100.00
26489;BME280;14169;43.684;10.484;2022-07-06T02:25:13;101468.81;;;23.13;100.00
26489;BME280;14169;43.684;10.484;2022-07-06T02:27:38;101459.69;;;23.04;100.00
26489;BME280;14169;43.684;10.484;2022-07-06T02:30:05;101458.00;;;23.03;100.00
26489;BME280;14169;43.684;10.484;2022-07-06T02:32:30;101459.94;;;23.01;100.00
26489;BME280;14169;43.684;10.484;2022-07-06T02:34:56;101459.28;;;22.98;100.00
26489;BME280;14169;43.684;10.484;2022-07-06T02:37:22;101459.63;;;22.93;100.00
26489;BME280;14169;43.684;10.484;2022-07-06T02:39:48;101461.59;;;22.90;100.00
26489;BME280;14169;43.684;10.484;2022-07-06T02:42:13;101460.47;;;22.81;100.00
26489;BME280;14169;43.684;10.484;2022-07-06T02:44:38;101469.69;;;22.76;100.00
26489;BME280;14169;43.684;10.484;2022-07-06T02:47:04;101470.78;;;22.73;100.00
26489;BME280;14169;43.684;10.484;2022-07-06T02:49:29;101462.81;;;22.73;100.00
26489;BME280;14169;43.684;10.484;2022-07-06T02:51:55;101475.38;;;22.71;100.00
26489;BME280;14169;43.684;10.484;2022-07-06T02:54:20;101466.53;;;22.70;100.00
26489;BME280;14169;43.684;10.484;2022-07-06T02:56:45;101471.00;;;22.70;100.00
26489;BME280;14169;43.684;10.484;2022-07-06T02:59:16;101476.94;;;22.73;100.00
26489;BME280;14169;43.684;10.484;2022-07-06T03:01:42;101471.63;;;22.73;100.00
26489;BME280;14169;43.684;10.484;2022-07-06T03:04:07;101477.03;;;22.72;100.00
26489;BME280;14169;43.684;10.484;2022-07-06T03:06:32;101477.41;;;22.67;100.00
26489;BME280;14169;43.684;10.484;2022-07-06T03:08:58;101489.09;;;22.65;100.00
26489;BME280;14169;43.684;10.484;2022-07-06T03:11:23;101496.31;;;22.63;100.00
26489;BME280;14169;43.684;10.484;2022-07-06T03:13:49;101491.19;;;22.60;100.00
26489;BME280;14169;43.684;10.484;2022-07-06T03:16:14;101492.38;;;22.56;100.00
26489;BME280;14169;43.684;10.484;2022-07-06T03:18:39;101497.91;;;22.53;100.00
26489;BME280;14169;43.684;10.484;2022-07-06T03:21:05;101498.03;;;22.51;100.00
26489;BME280;14169;43.684;10.484;2022-07-06T03:23:30;101499.81;;;22.51;100.00
26489;BME280;14169;43.684;10.484;2022-07-06T03:25:56;101493.75;;;22.49;100.00
26489;BME280;14169;43.684;10.484;2022-07-06T03:28:21;101489.38;;;22.48;100.00
26489;BME280;14169;43.684;10.484;2022-07-06T03:30:47;101498.44;;;22.45;100.00
26489;BME280;14169;43.684;10.484;2022-07-06T03:33:12;101495.56;;;22.48;100.00
26489;BME280;14169;43.684;10.484;2022-07-06T03:35:37;101492.91;;;22.48;100.00
26489;BME280;14169;43.684;10.484;2022-07-06T03:38:03;101492.03;;;22.48;100.00
26489;BME280;14169;43.684;10.484;2022-07-06T03:40:28;101493.00;;;22.47;100.00
26489;BME280;14169;43.684;10.484;2022-07-06T03:42:54;101494.69;;;22.48;100.00
26489;BME280;14169;43.684;10.484;2022-07-06T03:45:19;101485.06;;;22.47;100.00
26489;BME280;14169;43.684;10.484;2022-07-06T03:47:44;101484.94;;;22.48;100.00
26489;BME280;14169;43.684;10.484;2022-07-06T03:50:10;101487.47;;;22.50;100.00
26489;BME280;14169;43.684;10.484;2022-07-06T03:52:35;101491.84;;;22.51;100.00
26489;BME280;14169;43.684;10.484;2022-07-06T03:55:09;101492.47;;;22.54;100.00
26489;BME280;14169;43.684;10.484;2022-07-06T03:57:36;101485.38;;;22.55;100.00
26489;BME280;14169;43.684;10.484;2022-07-06T04:00:03;101480.78;;;22.57;100.00
26489;BME280;14169;43.684;10.484;2022-07-06T04:02:28;101481.66;;;22.57;100.00
26489;BME280;14169;43.684;10.484;2022-07-06T04:04:54;101483.44;;;22.57;100.00
26489;BME280;14169;43.684;10.484;2022-07-06T04:07:19;101488.75;;;22.57;100.00
26489;BME280;14169;43.684;10.484;2022-07-06T04:09:44;101485.25;;;22.56;100.00
26489;BME280;14169;43.684;10.484;2022-07-06T04:12:10;101483.56;;;22.55;100.00
26489;BME280;14169;43.684;10.484;2022-07-06T04:14:35;101480.56;;;22.60;100.00
26489;BME280;14169;43.684;10.484;2022-07-06T04:17:01;101487.59;;;22.61;100.00
26489;BME280;14169;43.684;10.484;2022-07-06T04:19:49;101493.03;;;22.59;100.00
26489;BME280;14169;43.684;10.484;2022-07-06T04:22:15;101491.94;;;22.62;100.00
26489;BME280;14169;43.684;10.484;2022-07-06T04:24:40;101494.41;;;22.65;100.00
26489;BME280;14169;43.684;10.484;2022-07-06T04:27:05;101499.47;;;22.68;100.00
26489;BME280;14169;43.684;10.484;2022-07-06T04:29:31;101504.59;;;22.71;100.00
26489;BME280;14169;43.684;10.484;2022-07-06T04:31:56;101502.78;;;22.72;100.00
26489;BME280;14169;43.684;10.484;2022-07-06T04:34:22;101513.50;;;22.70;100.00
26489;BME280;14169;43.684;10.484;2022-07-06T04:36:47;101508.94;;;22.72;100.00
26489;BME280;14169;43.684;10.484;2022-07-06T04:39:12;101507.00;;;22.74;100.00
26489;BME280;14169;43.684;10.484;2022-07-06T04:41:38;101506.59;;;22.80;100.00
26489;BME280;14169;43.684;10.484;2022-07-06T04:44:03;101520.72;;;22.81;100.00
26489;BME280;14169;43.684;10.484;2022-07-06T04:46:29;101532.22;;;22.81;100.00
26489;BME280;14169;43.684;10.484;2022-07-06T04:48:54;101526.66;;;22.84;100.00
26489;BME280;14169;43.684;10.484;2022-07-06T04:51:20;101521.25;;;22.86;100.00
26489;BME280;14169;43.684;10.484;2022-07-06T04:53:45;101515.91;;;22.86;100.00
26489;BME280;14169;43.684;10.484;2022-07-06T04:56:12;101512.22;;;22.88;100.00
26489;BME280;14169;43.684;10.484;2022-07-06T04:58:37;101516.91;;;22.85;100.00
26489;BME280;14169;43.684;10.484;2022-07-06T05:01:02;101508.19;;;22.83;100.00
26489;BME280;14169;43.684;10.484;2022-07-06T05:03:28;101513.06;;;22.89;100.00
26489;BME280;14169;43.684;10.484;2022-07-06T05:05:53;101508.38;;;22.92;100.00
26489;BME280;14169;43.684;10.484;2022-07-06T05:08:19;101504.56;;;22.96;100.00
26489;BME280;14169;43.684;10.484;2022-07-06T05:10:44;101514.78;;;23.02;100.00
26489;BME280;14169;43.684;10.484;2022-07-06T05:13:09;101511.34;;;23.13;100.00
26489;BME280;14169;43.684;10.484;2022-07-06T05:15:35;101513.69;;;23.17;100.00
26489;BME280;14169;43.684;10.484;2022-07-06T05:18:00;101508.13;;;23.20;100.00
26489;BME280;14169;43.684;10.484;2022-07-06T05:20:26;101498.13;;;23.24;100.00
26489;BME280;14169;43.684;10.484;2022-07-06T05:22:51;101503.84;;;23.30;100.00
26489;BME280;14169;43.684;10.484;2022-07-06T05:25:17;101512.56;;;23.32;100.00
26489;BME280;14169;43.684;10.484;2022-07-06T05:27:42;101505.31;;;23.34;100.00
26489;BME280;14169;43.684;10.484;2022-07-06T05:30:08;101506.81;;;23.38;100.00
26489;BME280;14169;43.684;10.484;2022-07-06T05:32:33;101518.69;;;23.45;100.00
26489;BME280;14169;43.684;10.484;2022-07-06T05:34:59;101512.16;;;23.49;100.00
26489;BME280;14169;43.684;10.484;2022-07-06T05:37:24;101514.28;;;23.57;100.00
26489;BME280;14169;43.684;10.484;2022-07-06T05:39:50;101513.31;;;23.58;100.00
26489;BME280;14169;43.684;10.484;2022-07-06T05:42:16;101518.50;;;23.60;100.00
26489;BME280;14169;43.684;10.484;2022-07-06T05:44:41;101522.69;;;23.64;100.00
26489;BME280;14169;43.684;10.484;2022-07-06T05:47:07;101512.69;;;23.67;100.00
26489;BME280;14169;43.684;10.484;2022-07-06T05:49:50;101513.19;;;23.72;100.00
26489;BME280;14169;43.684;10.484;2022-07-06T05:52:34;101522.28;;;23.81;100.00
26489;BME280;14169;43.684;10.484;2022-07-06T05:55:00;101518.09;;;23.89;100.00
26489;BME280;14169;43.684;10.484;2022-07-06T05:57:25;101522.84;;;23.97;100.00
26489;BME280;14169;43.684;10.484;2022-07-06T05:59:51;101531.84;;;24.07;100.00
26489;BME280;14169;43.684;10.484;2022-07-06T06:02:17;101540.59;;;24.20;100.00
26489;BME280;14169;43.684;10.484;2022-07-06T06:04:42;101546.94;;;24.30;100.00
26489;BME280;14169;43.684;10.484;2022-07-06T06:07:08;101548.66;;;24.42;100.00
26489;BME280;14169;43.684;10.484;2022-07-06T06:09:33;101555.84;;;24.53;100.00
26489;BME280;14169;43.684;10.484;2022-07-06T06:11:59;101558.03;;;24.59;100.00
26489;BME280;14169;43.684;10.484;2022-07-06T06:14:24;101556.47;;;24.67;100.00
26489;BME280;14169;43.684;10.484;2022-07-06T06:16:49;101558.91;;;24.81;100.00
26489;BME280;14169;43.684;10.484;2022-07-06T06:19:15;101559.88;;;24.91;100.00
26489;BME280;14169;43.684;10.484;2022-07-06T06:21:40;101557.00;;;25.05;100.00
26489;BME280;14169;43.684;10.484;2022-07-06T06:24:06;101550.94;;;25.14;100.00
26489;BME280;14169;43.684;10.484;2022-07-06T06:26:31;101571.19;;;25.28;100.00
26489;BME280;14169;43.684;10.484;2022-07-06T06:28:57;101571.78;;;25.43;100.00
26489;BME280;14169;43.684;10.484;2022-07-06T06:31:22;101580.25;;;25.59;100.00
26489;BME280;14169;43.684;10.484;2022-07-06T06:33:47;101581.81;;;25.72;100.00
26489;BME280;14169;43.684;10.484;2022-07-06T06:36:13;101578.00;;;25.86;100.00
26489;BME280;14169;43.684;10.484;2022-07-06T06:38:39;101590.94;;;26.01;100.00
26489;BME280;14169;43.684;10.484;2022-07-06T06:41:04;101594.41;;;26.13;100.00
26489;BME280;14169;43.684;10.484;2022-07-06T06:43:29;101598.88;;;26.24;100.00
26489;BME280;14169;43.684;10.484;2022-07-06T06:45:55;101597.28;;;26.32;100.00
26489;BME280;14169;43.684;10.484;2022-07-06T06:48:20;101602.31;;;26.46;100.00
26489;BME280;14169;43.684;10.484;2022-07-06T06:50:46;101596.63;;;26.60;100.00
26489;BME280;14169;43.684;10.484;2022-07-06T06:53:11;101595.59;;;26.72;100.00
26489;BME280;14169;43.684;10.484;2022-07-06T06:55:37;101597.44;;;26.81;100.00
26489;BME280;14169;43.684;10.484;2022-07-06T06:58:02;101595.72;;;26.92;100.00
26489;BME280;14169;43.684;10.484;2022-07-06T07:00:28;101606.34;;;27.03;100.00
26489;BME280;14169;43.684;10.484;2022-07-06T07:02:53;101610.16;;;27.10;100.00
26489;BME280;14169;43.684;10.484;2022-07-06T07:05:19;101608.94;;;27.23;100.00
26489;BME280;14169;43.684;10.484;2022-07-06T07:07:46;101611.53;;;27.34;100.00
26489;BME280;14169;43.684;10.484;2022-07-06T07:10:12;101606.97;;;27.46;100.00
26489;BME280;14169;43.684;10.484;2022-07-06T07:12:47;101608.63;;;27.47;100.00
26489;BME280;14169;43.684;10.484;2022-07-06T07:15:13;101609.25;;;27.60;100.00
26489;BME280;14169;43.684;10.484;2022-07-06T07:17:39;101613.66;;;27.71;100.00
26489;BME280;14169;43.684;10.484;2022-07-06T07:20:05;101611.41;;;27.76;100.00
26489;BME280;14169;43.684;10.484;2022-07-06T07:22:30;101601.84;;;27.83;100.00
26489;BME280;14169;43.684;10.484;2022-07-06T07:24:56;101604.53;;;27.92;100.00
26489;BME280;14169;43.684;10.484;2022-07-06T07:27:21;101603.84;;;28.09;100.00
26489;BME280;14169;43.684;10.484;2022-07-06T07:29:46;101598.22;;;28.22;100.00
26489;BME280;14169;43.684;10.484;2022-07-06T07:32:12;101615.00;;;28.33;100.00
26489;BME280;14169;43.684;10.484;2022-07-06T07:34:37;101607.22;;;28.49;100.00
26489;BME280;14169;43.684;10.484;2022-07-06T07:37:03;101595.38;;;28.52;100.00
26489;BME280;14169;43.684;10.484;2022-07-06T07:39:28;101601.44;;;28.54;100.00
26489;BME280;14169;43.684;10.484;2022-07-06T07:41:54;101601.44;;;28.54;100.00
26489;BME280;14169;43.684;10.484;2022-07-06T07:44:19;101601.56;;;28.52;100.00
26489;BME280;14169;43.684;10.484;2022-07-06T07:46:45;101600.75;;;28.42;100.00
26489;BME280;14169;43.684;10.484;2022-07-06T07:49:10;101601.84;;;28.49;100.00
26489;BME280;14169;43.684;10.484;2022-07-06T07:51:35;101607.78;;;28.63;100.00
26489;BME280;14169;43.684;10.484;2022-07-06T07:54:01;101601.16;;;28.76;100.00
26489;BME280;14169;43.684;10.484;2022-07-06T07:56:27;101598.00;;;28.81;100.00
26489;BME280;14169;43.684;10.484;2022-07-06T07:58:52;101596.72;;;28.94;100.00
26489;BME280;14169;43.684;10.484;2022-07-06T08:01:17;101583.09;;;29.05;100.00
26489;BME280;14169;43.684;10.484;2022-07-06T08:03:43;101577.13;;;29.21;100.00
26489;BME280;14169;43.684;10.484;2022-07-06T08:06:08;101573.66;;;29.38;100.00
26489;BME280;14169;43.684;10.484;2022-07-06T08:08:34;101569.09;;;29.39;100.00
26489;BME280;14169;43.684;10.484;2022-07-06T08:10:59;101565.53;;;29.48;100.00
26489;BME280;14169;43.684;10.484;2022-07-06T08:13:25;101559.56;;;29.54;100.00
26489;BME280;14169;43.684;10.484;2022-07-06T08:15:50;101544.38;;;29.62;100.00
26489;BME280;14169;43.684;10.484;2022-07-06T08:18:15;101549.53;;;29.73;100.00
26489;BME280;14169;43.684;10.484;2022-07-06T08:20:41;101547.66;;;29.83;100.00
26489;BME280;14169;43.684;10.484;2022-07-06T08:23:06;101547.97;;;29.98;100.00
26489;BME280;14169;43.684;10.484;2022-07-06T08:25:32;101539.81;;;30.07;100.00
26489;BME280;14169;43.684;10.484;2022-07-06T08:27:57;101553.78;;;30.11;100.00
26489;BME280;14169;43.684;10.484;2022-07-06T08:30:23;101549.69;;;30.25;100.00
26489;BME280;14169;43.684;10.484;2022-07-06T08:32:48;101543.59;;;30.23;100.00
26489;BME280;14169;43.684;10.484;2022-07-06T08:35:14;101548.69;;;30.26;100.00
26489;BME280;14169;43.684;10.484;2022-07-06T08:37:39;101542.38;;;30.35;100.00
26489;BME280;14169;43.684;10.484;2022-07-06T08:40:05;101543.47;;;30.42;100.00
26489;BME280;14169;43.684;10.484;2022-07-06T08:42:33;101527.69;;;30.47;100.00
26489;BME280;14169;43.684;10.484;2022-07-06T08:44:59;101532.44;;;30.53;100.00
26489;BME280;14169;43.684;10.484;2022-07-06T08:47:28;101529.28;;;30.57;100.00
26489;BME280;14169;43.684;10.484;2022-07-06T08:49:55;101521.94;;;30.42;100.00
26489;BME280;14169;43.684;10.484;2022-07-06T08:52:22;101527.38;;;30.50;100.00
26489;BME280;14169;43.684;10.484;2022-07-06T08:54:48;101521.09;;;30.67;100.00
26489;BME280;14169;43.684;10.484;2022-07-06T08:57:14;101521.03;;;30.84;100.00
26489;BME280;14169;43.684;10.484;2022-07-06T08:59:40;101517.38;;;30.93;100.00
26489;BME280;14169;43.684;10.484;2022-07-06T09:02:05;101517.91;;;30.97;100.00
26489;BME280;14169;43.684;10.484;2022-07-06T09:04:35;101518.59;;;30.99;100.00
26489;BME280;14169;43.684;10.484;2022-07-06T09:07:01;101515.09;;;31.15;100.00
26489;BME280;14169;43.684;10.484;2022-07-06T09:09:28;101509.91;;;31.21;100.00
26489;BME280;14169;43.684;10.484;2022-07-06T09:11:56;101515.31;;;31.21;98.60
26489;BME280;14169;43.684;10.484;2022-07-06T09:14:21;101515.56;;;31.36;98.96
26489;BME280;14169;43.684;10.484;2022-07-06T09:16:51;101522.16;;;31.57;93.18
26489;BME280;14169;43.684;10.484;2022-07-06T09:19:17;101513.91;;;31.67;91.75
26489;BME280;14169;43.684;10.484;2022-07-06T09:21:43;101523.41;;;31.87;87.68
26489;BME280;14169;43.684;10.484;2022-07-06T09:24:12;101519.19;;;31.93;85.50
26489;BME280;14169;43.684;10.484;2022-07-06T09:26:39;101514.66;;;32.01;91.79
26489;BME280;14169;43.684;10.484;2022-07-06T09:29:05;101516.66;;;31.91;90.54
26489;BME280;14169;43.684;10.484;2022-07-06T09:31:31;101516.50;;;32.01;92.45
26489;BME280;14169;43.684;10.484;2022-07-06T09:36:47;101515.31;;;32.35;88.16
26489;BME280;14169;43.684;10.484;2022-07-06T09:39:18;101516.78;;;32.62;89.54
26489;BME280;14169;43.684;10.484;2022-07-06T09:41:45;101509.16;;;32.74;86.33
26489;BME280;14169;43.684;10.484;2022-07-06T09:44:11;101514.38;;;32.91;87.41
26489;BME280;14169;43.684;10.484;2022-07-06T09:46:45;101507.53;;;33.11;86.80
26489;BME280;14169;43.684;10.484;2022-07-06T09:49:11;101517.03;;;33.30;82.69
26489;BME280;14169;43.684;10.484;2022-07-06T09:51:37;101514.56;;;33.20;81.03
26489;BME280;14169;43.684;10.484;2022-07-06T09:54:09;101499.91;;;33.15;82.00
26489;BME280;14169;43.684;10.484;2022-07-06T09:56:38;101508.75;;;33.31;81.52
26489;BME280;14169;43.684;10.484;2022-07-06T09:59:18;101509.25;;;33.35;77.35
26489;BME280;14169;43.684;10.484;2022-07-06T10:01:44;101508.84;;;33.46;79.06
26489;BME280;14169;43.684;10.484;2022-07-06T10:04:11;101516.31;;;33.36;80.06
26489;BME280;14169;43.684;10.484;2022-07-06T10:06:44;101505.50;;;33.44;75.58
26489;BME280;14169;43.684;10.484;2022-07-06T10:09:11;101508.56;;;33.41;72.45
26489;BME280;14169;43.684;10.484;2022-07-06T10:11:49;101506.28;;;33.53;73.90
26489;BME280;14169;43.684;10.484;2022-07-06T10:14:18;101510.69;;;33.54;74.65
26489;BME280;14169;43.684;10.484;2022-07-06T10:16:45;101510.19;;;33.50;76.29
26489;BME280;14169;43.684;10.484;2022-07-06T10:19:11;101503.84;;;33.66;71.07
26489;BME280;14169;43.684;10.484;2022-07-06T10:21:38;101517.41;;;33.58;70.12
26489;BME280;14169;43.684;10.484;2022-07-06T10:24:05;101498.44;;;33.35;66.37
26489;BME280;14169;43.684;10.484;2022-07-06T10:26:32;101505.88;;;33.41;68.19
26489;BME280;14169;43.684;10.484;2022-07-06T10:29:01;101501.13;;;33.43;67.09
26489;BME280;14169;43.684;10.484;2022-07-06T10:31:28;101505.63;;;33.51;66.73
26489;BME280;14169;43.684;10.484;2022-07-06T10:33:55;101503.41;;;33.77;66.71
26489;BME280;14169;43.684;10.484;2022-07-06T10:36:22;101496.22;;;33.69;65.79
26489;BME280;14169;43.684;10.484;2022-07-06T10:38:49;101499.59;;;33.86;66.04
26489;BME280;14169;43.684;10.484;2022-07-06T10:41:16;101488.06;;;34.14;66.41
26489;BME280;14169;43.684;10.484;2022-07-06T10:43:43;101487.97;;;34.45;62.77
26489;BME280;14169;43.684;10.484;2022-07-06T10:46:16;101492.69;;;34.58;60.05
26489;BME280;14169;43.684;10.484;2022-07-06T10:48:48;101476.91;;;34.76;61.55
26489;BME280;14169;43.684;10.484;2022-07-06T10:51:28;101488.44;;;34.92;57.54
26489;BME280;14169;43.684;10.484;2022-07-06T10:53:58;101479.00;;;35.24;59.90
26489;BME280;14169;43.684;10.484;2022-07-06T10:56:40;101473.06;;;35.50;56.12
26489;BME280;14169;43.684;10.484;2022-07-06T10:59:16;101482.69;;;35.31;52.03
26489;BME280;14169;43.684;10.484;2022-07-06T11:04:35;101470.88;;;35.24;57.14
26489;BME280;14169;43.684;10.484;2022-07-06T11:07:07;101483.81;;;35.08;80.13
26489;BME280;14169;43.684;10.484;2022-07-06T11:09:35;101475.91;;;34.77;83.55
26489;BME280;14169;43.684;10.484;2022-07-06T11:12:12;101479.91;;;34.37;84.61
26489;BME280;14169;43.684;10.484;2022-07-06T11:14:38;101485.41;;;34.44;88.32
26489;BME280;14169;43.684;10.484;2022-07-06T11:17:04;101478.16;;;34.59;84.57
26489;BME280;14169;43.684;10.484;2022-07-06T11:19:30;101501.94;;;33.97;98.21
26489;BME280;14169;43.684;10.484;2022-07-06T11:21:58;101492.47;;;33.70;100.00
26489;BME280;14169;43.684;10.484;2022-07-06T11:24:31;101502.13;;;33.11;100.00
26489;BME280;14169;43.684;10.484;2022-07-06T11:26:59;101496.31;;;32.92;100.00
26489;BME280;14169;43.684;10.484;2022-07-06T11:29:26;101498.16;;;32.83;100.00
26489;BME280;14169;43.684;10.484;2022-07-06T11:31:58;101491.59;;;32.78;100.00
26489;BME280;14169;43.684;10.484;2022-07-06T11:34:28;101484.06;;;32.65;100.00
26489;BME280;14169;43.684;10.484;2022-07-06T11:36:55;101480.25;;;32.43;100.00
26489;BME280;14169;43.684;10.484;2022-07-06T11:39:21;101480.03;;;32.53;100.00
26489;BME280;14169;43.684;10.484;2022-07-06T11:41:47;101477.97;;;32.71;100.00
26489;BME280;14169;43.684;10.484;2022-07-06T11:44:12;101458.31;;;32.85;100.00
26489;BME280;14169;43.684;10.484;2022-07-06T11:46:37;101444.41;;;33.04;100.00
26489;BME280;14169;43.684;10.484;2022-07-06T11:49:07;101448.75;;;33.36;100.00
26489;BME280;14169;43.684;10.484;2022-07-06T11:51:35;101455.19;;;33.43;100.00
26489;BME280;14169;43.684;10.484;2022-07-06T11:54:15;101451.81;;;33.10;100.00
26489;BME280;14169;43.684;10.484;2022-07-06T11:56:50;101451.81;;;33.41;100.00
26489;BME280;14169;43.684;10.484;2022-07-06T11:59:23;101452.47;;;33.66;100.00
26489;BME280;14169;43.684;10.484;2022-07-06T12:01:49;101455.94;;;33.97;100.00
26489;BME280;14169;43.684;10.484;2022-07-06T12:04:15;101455.53;;;33.85;100.00
26489;BME280;14169;43.684;10.484;2022-07-06T12:06:43;101444.91;;;33.61;100.00
26489;BME280;14169;43.684;10.484;2022-07-06T12:09:09;101448.00;;;33.73;100.00
26489;BME280;14169;43.684;10.484;2022-07-06T12:11:36;101451.38;;;34.12;100.00
26489;BME280;14169;43.684;10.484;2022-07-06T12:14:19;101457.38;;;34.07;99.25
26489;BME280;14169;43.684;10.484;2022-07-06T12:16:46;101454.56;;;34.30;100.00
26489;BME280;14169;43.684;10.484;2022-07-06T12:19:12;101461.31;;;34.34;99.51
26489;BME280;14169;43.684;10.484;2022-07-06T12:21:49;101458.84;;;34.47;96.47
26489;BME280;14169;43.684;10.484;2022-07-06T12:24:22;101468.81;;;34.47;92.89
26489;BME280;14169;43.684;10.484;2022-07-06T12:26:48;101476.38;;;34.37;92.23
26489;BME280;14169;43.684;10.484;2022-07-06T12:29:13;101464.63;;;34.07;93.54
26489;BME280;14169;43.684;10.484;2022-07-06T12:31:44;101454.78;;;34.29;93.77
26489;BME280;14169;43.684;10.484;2022-07-06T12:34:31;101460.22;;;33.91;90.75
26489;BME280;14169;43.684;10.484;2022-07-06T12:36:59;101451.50;;;34.18;93.00